Saturday, October 20, 2018, 6:40 AM EDT
Back to Local

KAVP, Wilkes-barre/scranton International

Location: Pittston, PA, United States Lat: 41.333
Local Time: 6:40 AM EDT (10:40 GMT) Lon: -75.733
Time Zone: US/Eastern Elev: 961 ft

Show me the last for .
Show Decoded

2018-10-20 05:54 METAR KAVP 200954Z 25009KT 10SM OVC023 10/09 A2972 RMK AO2 SLP065 T01000089 =
2018-10-20 04:54 METAR KAVP 200854Z AUTO 24007KT 10SM SCT020 OVC026 10/08 A2972 RMK AO2 SLP062
                 60002 T01000083 56029 =
2018-10-20 03:54 METAR KAVP 200754Z AUTO 24009G17KT 10SM FEW020 OVC028 11/08 A2974 RMK AO2 SLP068
                 T01060078 =
2018-10-20 03:31 METAR KAVP 200731Z 22011G22KT 10SM FEW020 OVC028 11/08 A2975 RMK AO2 T01060078 =
2018-10-20 02:54 METAR KAVP 200654Z 22007KT 10SM FEW021 OVC033 10/08 A2976 RMK AO2 RAE32 SLP075
                 P0002 T01000083 =
2018-10-20 01:54 METAR KAVP 200554Z 22007KT 180V250 6SM RA BKN045 OVC050 11/08 A2981 RMK AO2
                 SLP092 P0001 60001 T01060078 10117 20094 56021 =
2018-10-20 00:54 METAR KAVP 200454Z 33005KT 9SM -RA OVC085 11/07 A2983 RMK AO2 RAB47 SLP102 P0000
                 T01060067 401441011 =
2018-10-19 23:54 METAR KAVP 200354Z 17003KT 10SM OVC100 11/06 A2984 RMK AO2 SLP104 T01110056 =
2018-10-19 22:54 METAR KAVP 200254Z 21007KT 10SM SCT120 12/05 A2987 RMK AO2 SLP115 T01170050
                 56036 =
2018-10-19 21:54 METAR KAVP 200154Z 23007KT 10SM CLR 11/03 A2992 RMK AO2 SLP132 T01110033 =
2018-10-19 20:54 METAR KAVP 200054Z 20004KT 10SM CLR 10/01 A2992 RMK AO2 SLP135 T01000011 =
2018-10-19 19:54 METAR KAVP 192354Z 20003KT 10SM CLR 10/01 A2998 RMK AO2 SLP156 T01000006 10144
                 20100 56015 =
2018-10-19 18:54 METAR KAVP 192254Z 19005KT 10SM CLR 11/M01 A2998 RMK AO2 SLP157 T01111006 =
2018-10-19 17:54 METAR KAVP 192154Z 20004KT 10SM CLR 12/00 A3001 RMK AO2 SLP163 T01170000 =
2018-10-19 16:54 METAR KAVP 192054Z 23009KT 10SM CLR 13/01 A3003 RMK AO2 SLP170 T01330006 56033 =
2018-10-19 15:54 METAR KAVP 191954Z 24008KT 10SM CLR 13/02 A3004 RMK AO2 SLP176 T01330017 =
2018-10-19 14:54 METAR KAVP 191854Z 23009KT 10SM CLR 13/M01 A3007 RMK AO2 SLP184 T01331006 =
2018-10-19 13:54 METAR KAVP 191754Z 23011G18KT 10SM CLR 12/00 A3013 RMK AO2 SLP205 T01220000
                 10122 21006 58038 =
2018-10-19 12:54 METAR KAVP 191654Z 24013KT 10SM CLR 11/00 A3017 RMK AO2 SLP220 T01110000 =
2018-10-19 11:54 METAR KAVP 191554Z 23010KT 10SM CLR 11/M01 A3022 RMK AO2 SLP236 T01061006 =
2018-10-19 10:54 METAR KAVP 191454Z 24012G17KT 10SM CLR 08/M01 A3024 RMK AO2 SLP245 T00831006
                 58013 =
2018-10-19 09:54 METAR KAVP 191354Z 23010KT 10SM CLR 07/M01 A3026 RMK AO2 SLP253 T00671006 =
2018-10-19 08:54 METAR KAVP 191254Z 00000KT 10SM CLR 03/01 A3028 RMK AO2 SLP259 T00330006 =
2018-10-19 07:54 METAR KAVP 191154Z 00000KT 9SM CLR M01/M01 A3028 RMK AO2 SLP261 T10061011 10022
                 21011 56006 =
2018-10-19 06:54 METAR KAVP 191054Z AUTO 00000KT 10SM CLR M01/M01 A3029 RMK AO2 SLP263 T10061011
                 =

Support USWX by starting your Amazon purchase here.